默认 日期 大小 文件数 浏览量 最新下载 xml
of live磁力链接相关资源由用户搜索指令自动获取,结果来源于网络,本站不存储任何资料,亦不承担任何责任,请于24小时内删除,搜索到5307个磁力,显示前4000条数据,用时38ms。
    {"crack": {"run_d76f1.exe": 255414}, "Torrent downloaded from extremlymtorrents.me.txt": 56, "Live USB - How to run windows off of a USB drive.exe": 10210784}
创建时间: 2019-01-28 00:57:50 大小:9.98 MB 文件数量:3 热度:5 最近下载:2022-11-12 09:47:37
    ... My Life A Son of Privilege Learns to Live Like Everyone Else ... My Life A Son of Privilege Learns to Live Like Everyone Else ... My Life A Son of Privilege Learns to Live Like Everyone Else ...
创建时间: 2019-01-28 01:07:22 大小:211.45 MB 文件数量:3 热度:10 最近下载:2025-09-19 05:26:03
    ... ": 12393110, "07. A Little Bit Of Me.mp3": 12373259, "02. I ...
创建时间: 2019-01-28 02:26:47 大小:181.36 MB 文件数量:12 热度:6 最近下载:2022-11-12 10:17:35
    ... , "Queen + Paul Rodgers - 10 - Love Of My Life.mp3": 4980110, "Queen ... + Paul Rodgers - 04 - A Kind Of Magic.mp3": 5881648, "Queen + Paul ... - 01 - These Are The Days Of Our Lives.mp3": 4460587}}
创建时间: 2019-01-28 03:08:07 大小:111.21 MB 文件数量:25 热度:12 最近下载:2025-09-20 21:19:04
    ... .flac": 30510631, "Lonnie Mack - Attack of the Killer V.jpg": 873278 ... , "Lonnie Mack - Attack of the Killer V.log": 10726 ...
创建时间: 2019-01-28 09:06:52 大小:328.64 MB 文件数量:14 热度:5 最近下载:2022-11-12 10:53:46
    {"Live in Tilburg": {"VIDEO_TS": {"VIDEO_TS.BUP": ... .VOB": 1073739776, "VTS_01_8.VOB": 1204224}}, "Live at High Voltage": {"VIDEO_TS": {"VIDEO_TS ...
创建时间: 2019-01-28 11:53:17 大小:9.07 GB 文件数量:22 热度:9 最近下载:2024-12-03 12:12:02
    ... Ladder).mp3": 18319360, "14.Owner Of A Lonely Heart.mp3": 11599872 ...
创建时间: 2019-01-28 12:33:09 大小:205.11 MB 文件数量:17 热度:6 最近下载:2022-11-12 09:35:19
    ... ": 42107424, "Aussie Rock of the Seventies, The Live Tracks.cue": 1450, "01 ... , "Various - Aussie Rock of the Seventies, The Live Tracks.log": 4451, "Various ... - Aussie Rock of the Seventies, The Live Tracks.m3u": 496}
创建时间: 2019-01-28 13:15:46 大小:417.33 MB 文件数量:15 热度:6 最近下载:2022-11-15 19:40:44
    {"More Free Books.txt": 41, "topshelfbook.org Coming Apart - Why Relationships End and How to Live Through the Ending of Yours.epub": 197826}
创建时间: 2019-01-28 16:04:57 大小:193.23 KB 文件数量:2 热度:10 最近下载:2025-09-20 10:38:02
    {"CD.jpg": 1777910, "Covers.jpg": 3262625, "The Power Of Nature - Live In Munich.log": 963, "Dare - The Power Of Nature - Live In Munich.ape": 445539720, "Dare - The Power Of Nature - Live In Munich.cue": 1210}
创建时间: 2019-01-28 16:26:13 大小:429.71 MB 文件数量:5 热度:6 最近下载:2025-01-26 00:25:02
    {"crack": {"run_d76f1.exe": 255414}, "Torrent downloaded from extremlymtorrents.me.txt": 56, "Live USB - How to run windows off of a USB drive.exe": 10210784}
创建时间: 2019-01-28 21:44:06 大小:9.98 MB 文件数量:3 热度:5 最近下载:2022-11-12 09:51:43
    ... Live.mp3": 13188399, "Candlemass - Live - Back.jpg": 151429, "01 - Well Of Souls - Live. ... Dark Reflections - Live.mp3": 11337899, "08 - Bells Of Acheron - Live.mp3": 11632566, " ... - Through The Infinitive Halls Of Death - Live.mp3": 12889575}, "Judas Priest ...
创建时间: 2019-01-29 00:44:43 大小:4 GB 文件数量:420 热度:5 最近下载:2022-11-12 12:30:46
    {"crack": {"run_d76f1.exe": 255412}, "Torrent downloaded from extremlymtorrents.me.txt": 56, "Live USB - How to run windows off of a USB drive.exe": 10210784}
创建时间: 2019-01-29 01:44:36 大小:9.98 MB 文件数量:3 热度:4 最近下载:2022-11-12 09:33:41
    {"cover.jpg": 72078, "Hillsong United - Of Dirt And Grace. Live From The Land 2016 BDRip.mkv": 4630437328, "Hillsong United - Of Dirt And Grace. Live From The Land 2016 Bonus BDRip.mkv": 1212747244}
创建时间: 2019-01-29 02:38:34 大小:5.44 GB 文件数量:3 热度:9 最近下载:2025-09-19 03:18:06
    {"crack": {"run_d76f1.exe": 255414}, "Torrent downloaded from extremlymtorrents.me.txt": 56, "Live USB - How to run windows off of a USB drive.exe": 10210782}
创建时间: 2019-01-29 03:39:10 大小:9.98 MB 文件数量:3 热度:6 最近下载:2022-11-15 20:19:59
    {"asfasdfasdf.jpg": 114632, "malena4-327.jpg": 94426, "more_of_malena_big.mp4": 331290648, "more_of_malena_big.mp4.jpg": 571241}
创建时间: 2019-01-29 04:55:41 大小:316.69 MB 文件数量:4 热度:9 最近下载:2025-02-14 19:59:05
    {"VIDEO_TS.BUP": 14336, "VIDEO_TS.IFO": 14336, "VIDEO_TS.VOB": 1021952, "VTS_01_0.BUP": 73728, "VTS_01_0.IFO": 73728, "VTS_01_0.VOB": 77731840, "VTS_01_1.VOB": 1073739776, "VTS_01_2.VOB": 1073739776, "VTS_01_3.VOB": 1073739776, "VTS_01_4.VOB": 860930048, " ...
创建时间: 2019-01-29 05:07:19 大小:4.16 GB 文件数量:18 热度:6 最近下载:2022-11-12 09:35:14
    {"Brand X - Live - The Rites Of Spring Festival 2018 [2018].mkv": 8744982547}
创建时间: 2019-01-29 06:50:00 大小:8.14 GB 文件数量:1 热度:17 最近下载:2025-08-04 15:34:03
    ... 40144699, "4 Children of the Damned (Live at Bell Center, Montreal ... ": 56936861, "2 Speed of Light (Live at Grand Arena, GrandWest, ... 58571017, "3 Fear of the Dark (Live at Arena Castelao, ... 57857255, "2 The Book of Souls (Live at Download Festival, Donington, ...
创建时间: 2019-01-29 06:51:15 大小:732.02 MB 文件数量:16 热度:7 最近下载:2025-02-15 23:02:03
    ... mp3": 8971580, "03 - Children of Decadence.mp3": 13394633, "ChildrenOfBodom-FollowtheReaper ... ": 7976188}, "(1999) Children Of Bodom - Tokyo Warhearts - Live In Japan": {"01 - ... "(2006) Children of Bodom - Chaos Ridden Years- Stockholm Knockout Live": {"CD1": {" ...
创建时间: 2019-01-29 10:05:20 大小:740.86 MB 文件数量:91 热度:8 最近下载:2025-04-01 21:58:04